Jeffersonville, VT (05464)

6:54 PM EDT on July 07, 2015 (GMT -0400)
Cambridge Elementary School | | Change Station
CLOSE
Current Station
Personal Weather Station
Location: Cambridge, VT
Elevation: 472 ft
Nearby Weather Stations

Elev 472 ft 44.64 °N, 72.83 °W | Updated 21 seconds ago

Overcast
Overcast
81.9 °F
Feels Like 86 °F
N
0.0
Wind Variable Wind from SSW
Gusts 2.0 mph

Today
High -- | Low -- °F
--% Chance of Precip.
Yesterday
High -- | Low -- °F
Precip. -- in
5:13 AM 8:38 PM
Waning Gibbous, 60% visible
Pressure 29.89 in
Visibility 10.0 miles
Clouds Scattered Clouds 8000 ft
Heat Index 86 °F
Dew Point 71 °F
Humidity 69%
Rainfall 0.00 in
Snow Depth Not available.
UV 2 out of 12
Pollen 3.20 out of 12
Air Quality Not available.
Flu Activity Not available.
METAR KMVL 072154Z AUTO 21006KT 10SM SCT080 27/21 A2989 RMK AO2 SLP121 T02720206 TSNO

More Conditions Fewer Conditions

Pressure 29.89 in
Visibility 10.0 miles
Clouds Scattered Clouds 8000 ft
Heat Index 86 °F
Dew Point 71 °F
Humidity 69%
Rainfall 0.00 in
Snow Depth Not available.
UV 2 out of 12
Pollen 3.20 out of 12
Air Quality Not available.
Flu Activity Not available.
METAR KMVL 072154Z AUTO 21006KT 10SM SCT080 27/21 A2989 RMK AO2 SLP121 T02720206 TSNO

More Conditions Fewer Conditions

10-Day Weather Forecast

×

Almanac

Astronomy

Jul. 07, 2015 Rise Set
Actual Time
Civil Twilight
Nautical Twilight
Astronomical Twilight
Moon
Length of Visible Light
Length of Day
Tomorrow will be .
, % of the Moon is Illuminated

Today's Extremes

State Highs State Lows

Community

WunderPhotos

Upload Photos

1,835,941 photos uploaded!

WunderBlogs® & News

Nearby

Air Quality

  Air Quality AQ Index Pollutant
Not available.

Snow Depth

Station Depth Elevation

Earthquake Activity

City Distance Mag. Time & Date
Minimum magnitude displayed is 2.5.

Coastal Water Temperatures

Place Temperature

Stations

Nearby Weather Stations

Station Location Temp. Windchill Dew Point Humidity Wind Precip. Elev Updated Type